sensor_id;sensor_type;location;lat;lon;timestamp;pressure;altitude;pressure_sealevel;temperature;humidity
59289;BME280;45056;47.602;9.886;2023-06-22T00:00:55;92964.06;;;23.86;53.89
59289;BME280;45056;47.602;9.886;2023-06-22T00:03:24;92953.56;;;23.78;54.04
59289;BME280;45056;47.602;9.886;2023-06-22T00:05:53;92959.97;;;23.73;53.97
59289;BME280;45056;47.602;9.886;2023-06-22T00:08:23;92962.28;;;23.69;54.04
59289;BME280;45056;47.602;9.886;2023-06-22T00:10:51;92966.31;;;23.68;53.98
59289;BME280;45056;47.602;9.886;2023-06-22T00:13:20;92965.59;;;23.68;53.78
59289;BME280;45056;47.602;9.886;2023-06-22T00:15:49;92971.88;;;23.68;53.78
59289;BME280;45056;47.602;9.886;2023-06-22T00:18:17;92974.44;;;23.66;54.13
59289;BME280;45056;47.602;9.886;2023-06-22T00:20:44;92970.16;;;23.65;54.24
59289;BME280;45056;47.602;9.886;2023-06-22T00:23:13;92971.22;;;23.62;54.22
59289;BME280;45056;47.602;9.886;2023-06-22T00:25:42;92967.69;;;23.61;54.33
59289;BME280;45056;47.602;9.886;2023-06-22T00:28:10;92963.94;;;23.59;54.32
59289;BME280;45056;47.602;9.886;2023-06-22T00:30:39;92961.72;;;23.57;54.46
59289;BME280;45056;47.602;9.886;2023-06-22T00:33:07;92965.00;;;23.56;54.63
59289;BME280;45056;47.602;9.886;2023-06-22T00:35:35;92966.28;;;23.55;54.61
59289;BME280;45056;47.602;9.886;2023-06-22T00:38:03;92954.19;;;23.52;54.85
59289;BME280;45056;47.602;9.886;2023-06-22T00:40:32;92951.94;;;23.51;54.82
59289;BME280;45056;47.602;9.886;2023-06-22T00:43:01;92951.50;;;23.46;55.03
59289;BME280;45056;47.602;9.886;2023-06-22T00:45:29;92940.69;;;23.43;55.09
59289;BME280;45056;47.602;9.886;2023-06-22T00:47:59;92945.28;;;23.40;55.00
59289;BME280;45056;47.602;9.886;2023-06-22T00:50:29;92942.34;;;23.32;54.79
59289;BME280;45056;47.602;9.886;2023-06-22T00:53:03;92941.69;;;23.26;54.99
59289;BME280;45056;47.602;9.886;2023-06-22T00:55:36;92944.50;;;23.20;55.21
59289;BME280;45056;47.602;9.886;2023-06-22T00:58:05;92938.28;;;23.14;55.29
59289;BME280;45056;47.602;9.886;2023-06-22T01:00:37;92954.47;;;23.10;55.36
59289;BME280;45056;47.602;9.886;2023-06-22T01:03:07;92942.91;;;23.06;55.46
59289;BME280;45056;47.602;9.886;2023-06-22T01:05:37;92945.44;;;23.04;55.37
59289;BME280;45056;47.602;9.886;2023-06-22T01:08:20;92948.00;;;23.02;55.56
59289;BME280;45056;47.602;9.886;2023-06-22T01:13:55;92941.03;;;22.95;55.76
59289;BME280;45056;47.602;9.886;2023-06-22T01:16:31;92948.59;;;22.95;55.90
59289;BME280;45056;47.602;9.886;2023-06-22T01:19:27;92949.88;;;22.94;55.99
59289;BME280;45056;47.602;9.886;2023-06-22T01:22:05;92954.44;;;22.91;55.92
59289;BME280;45056;47.602;9.886;2023-06-22T01:24:47;92953.69;;;22.90;55.94
59289;BME280;45056;47.602;9.886;2023-06-22T01:27:33;92955.69;;;22.90;56.03
59289;BME280;45056;47.602;9.886;2023-06-22T01:30:10;92945.38;;;22.90;55.92
59289;BME280;45056;47.602;9.886;2023-06-22T01:32:43;92945.38;;;22.90;55.84
59289;BME280;45056;47.602;9.886;2023-06-22T01:35:12;92938.31;;;22.89;55.73
59289;BME280;45056;47.602;9.886;2023-06-22T01:37:42;92945.88;;;22.89;55.66
59289;BME280;45056;47.602;9.886;2023-06-22T01:40:12;92943.63;;;22.87;55.82
59289;BME280;45056;47.602;9.886;2023-06-22T01:42:43;92943.41;;;22.85;55.85
59289;BME280;45056;47.602;9.886;2023-06-22T01:45:14;92948.75;;;22.83;55.84
59289;BME280;45056;47.602;9.886;2023-06-22T01:47:44;92956.28;;;22.83;55.87
59289;BME280;45056;47.602;9.886;2023-06-22T01:50:12;92952.78;;;22.82;56.12
59289;BME280;45056;47.602;9.886;2023-06-22T01:52:40;92967.16;;;22.81;56.22
59289;BME280;45056;47.602;9.886;2023-06-22T01:55:09;92971.47;;;22.76;56.34
59289;BME280;45056;47.602;9.886;2023-06-22T01:57:37;92964.22;;;22.73;56.35
59289;BME280;45056;47.602;9.886;2023-06-22T02:00:11;92961.22;;;22.71;56.31
59289;BME280;45056;47.602;9.886;2023-06-22T02:03:03;92969.31;;;22.69;56.47
59289;BME280;45056;47.602;9.886;2023-06-22T02:05:39;92969.84;;;22.67;56.37
59289;BME280;45056;47.602;9.886;2023-06-22T02:08:20;92963.53;;;22.67;56.35
59289;BME280;45056;47.602;9.886;2023-06-22T02:10:53;92971.63;;;22.65;56.42
59289;BME280;45056;47.602;9.886;2023-06-22T02:13:24;92971.38;;;22.62;56.66
59289;BME280;45056;47.602;9.886;2023-06-22T02:15:54;92976.69;;;22.60;56.90
59289;BME280;45056;47.602;9.886;2023-06-22T02:18:23;92972.94;;;22.58;56.85
59289;BME280;45056;47.602;9.886;2023-06-22T02:20:51;92974.75;;;22.55;56.91
59289;BME280;45056;47.602;9.886;2023-06-22T02:23:20;92981.56;;;22.54;56.96
59289;BME280;45056;47.602;9.886;2023-06-22T02:25:48;92971.50;;;22.51;57.14
59289;BME280;45056;47.602;9.886;2023-06-22T02:28:16;92973.28;;;22.48;57.10
59289;BME280;45056;47.602;9.886;2023-06-22T02:30:44;92965.97;;;22.45;57.22
59289;BME280;45056;47.602;9.886;2023-06-22T02:33:13;92970.31;;;22.41;57.32
59289;BME280;45056;47.602;9.886;2023-06-22T02:35:41;92975.84;;;22.41;57.30
59289;BME280;45056;47.602;9.886;2023-06-22T02:38:12;92982.44;;;22.38;57.26
59289;BME280;45056;47.602;9.886;2023-06-22T02:40:41;92984.22;;;22.35;57.45
59289;BME280;45056;47.602;9.886;2023-06-22T02:43:08;92981.47;;;22.35;57.23
59289;BME280;45056;47.602;9.886;2023-06-22T02:45:36;92984.97;;;22.36;57.34
59289;BME280;45056;47.602;9.886;2023-06-22T02:48:05;92991.78;;;22.34;57.39
59289;BME280;45056;47.602;9.886;2023-06-22T02:50:34;92989.31;;;22.31;57.33
59289;BME280;45056;47.602;9.886;2023-06-22T02:53:02;92988.53;;;22.30;57.35
59289;BME280;45056;47.602;9.886;2023-06-22T02:55:30;92981.50;;;22.29;57.43
59289;BME280;45056;47.602;9.886;2023-06-22T02:57:58;92984.78;;;22.28;57.48
59289;BME280;45056;47.602;9.886;2023-06-22T03:00:31;92984.53;;;22.26;57.54
59289;BME280;45056;47.602;9.886;2023-06-22T03:02:59;92989.13;;;22.23;57.77
59289;BME280;45056;47.602;9.886;2023-06-22T03:05:27;92992.41;;;22.22;57.87
59289;BME280;45056;47.602;9.886;2023-06-22T03:07:56;92997.69;;;22.19;57.85
59289;BME280;45056;47.602;9.886;2023-06-22T03:10:25;93003.78;;;22.18;58.18
59289;BME280;45056;47.602;9.886;2023-06-22T03:12:53;93001.50;;;22.16;58.03
59289;BME280;45056;47.602;9.886;2023-06-22T03:15:21;93004.03;;;22.14;57.86
59289;BME280;45056;47.602;9.886;2023-06-22T03:17:49;92996.22;;;22.13;57.80
59289;BME280;45056;47.602;9.886;2023-06-22T03:20:17;92983.94;;;22.08;58.03
59289;BME280;45056;47.602;9.886;2023-06-22T03:22:45;92994.03;;;22.05;58.04
59289;BME280;45056;47.602;9.886;2023-06-22T03:25:16;93005.19;;;22.00;58.02
59289;BME280;45056;47.602;9.886;2023-06-22T03:27:44;93001.41;;;21.97;58.01
59289;BME280;45056;47.602;9.886;2023-06-22T03:30:14;93007.97;;;21.94;58.09
59289;BME280;45056;47.602;9.886;2023-06-22T03:32:45;93005.47;;;21.90;58.37
59289;BME280;45056;47.602;9.886;2023-06-22T03:35:13;93004.50;;;21.88;58.45
59289;BME280;45056;47.602;9.886;2023-06-22T03:37:41;93003.00;;;21.87;58.55
59289;BME280;45056;47.602;9.886;2023-06-22T03:40:10;92998.47;;;21.84;58.37
59289;BME280;45056;47.602;9.886;2023-06-22T03:42:40;92995.47;;;21.82;58.40
59289;BME280;45056;47.602;9.886;2023-06-22T03:45:09;92986.91;;;21.80;58.33
59289;BME280;45056;47.602;9.886;2023-06-22T03:47:37;92986.91;;;21.80;58.43
59289;BME280;45056;47.602;9.886;2023-06-22T03:50:06;92984.38;;;21.82;58.46
59289;BME280;45056;47.602;9.886;2023-06-22T03:52:35;92988.66;;;21.83;58.38
59289;BME280;45056;47.602;9.886;2023-06-22T03:55:04;92983.38;;;21.85;58.10
59289;BME280;45056;47.602;9.886;2023-06-22T03:57:33;92988.63;;;21.88;58.19
59289;BME280;45056;47.602;9.886;2023-06-22T04:00:03;92985.59;;;21.92;58.23
59289;BME280;45056;47.602;9.886;2023-06-22T04:02:33;92986.31;;;21.93;58.28
59289;BME280;45056;47.602;9.886;2023-06-22T04:05:01;92980.28;;;21.94;58.17
59289;BME280;45056;47.602;9.886;2023-06-22T04:07:29;92980.28;;;21.94;58.22
59289;BME280;45056;47.602;9.886;2023-06-22T04:09:57;92972.47;;;21.93;58.18
59289;BME280;45056;47.602;9.886;2023-06-22T04:12:25;92975.78;;;21.91;58.23
59289;BME280;45056;47.602;9.886;2023-06-22T04:14:53;92976.50;;;21.91;58.18
59289;BME280;45056;47.602;9.886;2023-06-22T04:17:22;92967.16;;;21.95;58.08
59289;BME280;45056;47.602;9.886;2023-06-22T04:19:51;92968.91;;;21.98;57.91
59289;BME280;45056;47.602;9.886;2023-06-22T04:22:19;92973.66;;;22.03;57.94
59289;BME280;45056;47.602;9.886;2023-06-22T04:24:47;92980.19;;;22.05;57.73
59289;BME280;45056;47.602;9.886;2023-06-22T04:27:18;92972.09;;;22.08;57.68
59289;BME280;45056;47.602;9.886;2023-06-22T04:29:46;92973.34;;;22.12;57.62
59289;BME280;45056;47.602;9.886;2023-06-22T04:32:16;92978.59;;;22.16;57.31
59289;BME280;45056;47.602;9.886;2023-06-22T04:34:45;92973.53;;;22.20;57.12
59289;BME280;45056;47.602;9.886;2023-06-22T04:37:13;92971.97;;;22.25;57.04
59289;BME280;45056;47.602;9.886;2023-06-22T04:39:42;92965.09;;;22.31;56.87
59289;BME280;45056;47.602;9.886;2023-06-22T04:42:11;92969.34;;;22.38;56.93
59289;BME280;45056;47.602;9.886;2023-06-22T04:44:39;92969.25;;;22.44;56.68
59289;BME280;45056;47.602;9.886;2023-06-22T04:47:08;92963.69;;;22.50;56.42
59289;BME280;45056;47.602;9.886;2023-06-22T04:49:37;92973.69;;;22.58;56.37
59289;BME280;45056;47.602;9.886;2023-06-22T04:52:09;92968.56;;;22.68;56.19
59289;BME280;45056;47.602;9.886;2023-06-22T04:54:39;92957.09;;;22.77;55.75
59289;BME280;45056;47.602;9.886;2023-06-22T04:57:14;92951.13;;;22.92;55.34
59289;BME280;45056;47.602;9.886;2023-06-22T04:59:42;92950.91;;;23.34;54.61
59289;BME280;45056;47.602;9.886;2023-06-22T05:02:10;92945.72;;;23.96;53.26
59289;BME280;45056;47.602;9.886;2023-06-22T05:04:38;92946.00;;;24.85;50.76
59289;BME280;45056;47.602;9.886;2023-06-22T05:07:08;92940.13;;;25.85;47.63
59289;BME280;45056;47.602;9.886;2023-06-22T05:09:36;92940.13;;;26.77;45.40
59289;BME280;45056;47.602;9.886;2023-06-22T05:12:05;92931.97;;;27.53;43.80
59289;BME280;45056;47.602;9.886;2023-06-22T05:14:34;92930.22;;;27.94;42.72
59289;BME280;45056;47.602;9.886;2023-06-22T05:17:03;92933.59;;;28.16;42.01
59289;BME280;45056;47.602;9.886;2023-06-22T05:19:41;92927.66;;;28.20;41.91
59289;BME280;45056;47.602;9.886;2023-06-22T05:22:16;92930.25;;;28.26;41.97
59289;BME280;45056;47.602;9.886;2023-06-22T05:24:45;92930.44;;;28.43;41.77
59289;BME280;45056;47.602;9.886;2023-06-22T05:27:13;92934.69;;;28.68;41.25
59289;BME280;45056;47.602;9.886;2023-06-22T05:29:41;92939.56;;;28.67;41.11
59289;BME280;45056;47.602;9.886;2023-06-22T05:32:10;92932.47;;;28.74;41.00
59289;BME280;45056;47.602;9.886;2023-06-22T05:34:38;92930.00;;;28.93;40.44
59289;BME280;45056;47.602;9.886;2023-06-22T05:37:06;92934.13;;;28.85;40.45
59289;BME280;45056;47.602;9.886;2023-06-22T05:39:37;92932.28;;;28.56;41.04
59289;BME280;45056;47.602;9.886;2023-06-22T05:42:05;92925.97;;;28.17;42.18
59289;BME280;45056;47.602;9.886;2023-06-22T05:44:34;92928.31;;;27.82;43.24
59289;BME280;45056;47.602;9.886;2023-06-22T05:47:04;92926.75;;;27.57;43.86
59289;BME280;45056;47.602;9.886;2023-06-22T05:49:32;92932.63;;;27.38;44.06
59289;BME280;45056;47.602;9.886;2023-06-22T05:52:00;92934.56;;;27.14;45.05
59289;BME280;45056;47.602;9.886;2023-06-22T05:54:28;92937.44;;;26.93;45.98
59289;BME280;45056;47.602;9.886;2023-06-22T05:56:57;92933.59;;;26.75;46.51
59289;BME280;45056;47.602;9.886;2023-06-22T05:59:25;92935.22;;;26.62;47.06
59289;BME280;45056;47.602;9.886;2023-06-22T06:01:53;92944.28;;;26.55;47.29
59289;BME280;45056;47.602;9.886;2023-06-22T06:04:21;92943.66;;;26.49;47.43
59289;BME280;45056;47.602;9.886;2023-06-22T06:06:49;92940.47;;;26.45;47.81
59289;BME280;45056;47.602;9.886;2023-06-22T06:09:17;92937.69;;;26.45;47.63
59289;BME280;45056;47.602;9.886;2023-06-22T06:11:45;92941.22;;;26.45;46.95
59289;BME280;45056;47.602;9.886;2023-06-22T06:14:15;92934.41;;;26.54;46.28
59289;BME280;45056;47.602;9.886;2023-06-22T06:16:43;92938.00;;;26.62;46.45
59289;BME280;45056;47.602;9.886;2023-06-22T06:19:11;92937.44;;;26.64;46.90
59289;BME280;45056;47.602;9.886;2023-06-22T06:21:39;92932.81;;;26.67;47.53
59289;BME280;45056;47.602;9.886;2023-06-22T06:24:07;92931.50;;;26.68;48.67
59289;BME280;45056;47.602;9.886;2023-06-22T06:26:36;92938.06;;;26.70;49.28
59289;BME280;45056;47.602;9.886;2023-06-22T06:29:04;92935.81;;;26.69;49.20
59289;BME280;45056;47.602;9.886;2023-06-22T06:31:33;92937.09;;;26.68;48.47
59289;BME280;45056;47.602;9.886;2023-06-22T06:34:01;92938.19;;;26.64;48.36
59289;BME280;45056;47.602;9.886;2023-06-22T06:36:29;92938.38;;;26.67;47.83
59289;BME280;45056;47.602;9.886;2023-06-22T06:38:58;92943.19;;;26.58;47.50
59289;BME280;45056;47.602;9.886;2023-06-22T06:41:26;92933.66;;;26.54;47.26
59289;BME280;45056;47.602;9.886;2023-06-22T06:43:53;92934.41;;;26.54;47.80
59289;BME280;45056;47.602;9.886;2023-06-22T06:46:22;92934.41;;;26.54;47.16
59289;BME280;45056;47.602;9.886;2023-06-22T06:48:51;92930.34;;;26.55;47.01
59289;BME280;45056;47.602;9.886;2023-06-22T06:51:19;92929.22;;;26.58;46.53
59289;BME280;45056;47.602;9.886;2023-06-22T06:53:47;92930.34;;;26.63;46.11
59289;BME280;45056;47.602;9.886;2023-06-22T06:56:15;92928.19;;;26.69;45.54
59289;BME280;45056;47.602;9.886;2023-06-22T06:58:44;92931.56;;;26.75;45.88
59289;BME280;45056;47.602;9.886;2023-06-22T07:01:12;92927.31;;;26.82;46.39
59289;BME280;45056;47.602;9.886;2023-06-22T07:03:40;92923.66;;;26.87;45.81
59289;BME280;45056;47.602;9.886;2023-06-22T07:06:09;92926.84;;;26.91;45.00
59289;BME280;45056;47.602;9.886;2023-06-22T07:08:38;92919.59;;;26.96;45.05
59289;BME280;45056;47.602;9.886;2023-06-22T07:11:06;92916.66;;;27.02;43.47
59289;BME280;45056;47.602;9.886;2023-06-22T07:13:34;92922.63;;;27.06;43.09
59289;BME280;45056;47.602;9.886;2023-06-22T07:16:02;92923.78;;;27.11;42.64
59289;BME280;45056;47.602;9.886;2023-06-22T07:18:30;92927.72;;;27.15;42.05
59289;BME280;45056;47.602;9.886;2023-06-22T07:20:58;92931.63;;;27.20;42.55
59289;BME280;45056;47.602;9.886;2023-06-22T07:23:28;92930.72;;;27.25;42.84
59289;BME280;45056;47.602;9.886;2023-06-22T07:25:56;92938.22;;;27.30;42.44
59289;BME280;45056;47.602;9.886;2023-06-22T07:28:24;92936.19;;;27.39;42.74
59289;BME280;45056;47.602;9.886;2023-06-22T07:30:52;92924.81;;;27.44;42.64
59289;BME280;45056;47.602;9.886;2023-06-22T07:33:20;92937.34;;;27.51;43.77
59289;BME280;45056;47.602;9.886;2023-06-22T07:35:48;92931.03;;;27.58;44.37
59289;BME280;45056;47.602;9.886;2023-06-22T07:38:17;92939.25;;;27.64;43.32
59289;BME280;45056;47.602;9.886;2023-06-22T07:40:47;92936.47;;;27.64;43.44
59289;BME280;45056;47.602;9.886;2023-06-22T07:43:15;92945.81;;;27.67;43.48
59289;BME280;45056;47.602;9.886;2023-06-22T07:45:48;92942.44;;;27.68;43.58
59289;BME280;45056;47.602;9.886;2023-06-22T07:48:20;92946.53;;;27.67;43.68
59289;BME280;45056;47.602;9.886;2023-06-22T07:50:48;92945.03;;;27.66;43.57
59289;BME280;45056;47.602;9.886;2023-06-22T07:53:17;92943.19;;;27.69;43.77
59289;BME280;45056;47.602;9.886;2023-06-22T07:55:45;92937.03;;;27.70;43.81
59289;BME280;45056;47.602;9.886;2023-06-22T07:58:14;92936.31;;;27.70;43.67
59289;BME280;45056;47.602;9.886;2023-06-22T08:00:45;92937.22;;;27.72;43.66
59289;BME280;45056;47.602;9.886;2023-06-22T08:03:13;92936.13;;;27.75;43.62
59289;BME280;45056;47.602;9.886;2023-06-22T08:05:41;92938.00;;;27.81;43.55
59289;BME280;45056;47.602;9.886;2023-06-22T08:08:09;92941.19;;;27.85;43.17
59289;BME280;45056;47.602;9.886;2023-06-22T08:10:37;92933.56;;;27.93;43.01
59289;BME280;45056;47.602;9.886;2023-06-22T08:13:07;92942.69;;;28.01;42.64
59289;BME280;45056;47.602;9.886;2023-06-22T08:15:34;92942.16;;;28.11;42.25
59289;BME280;45056;47.602;9.886;2023-06-22T08:18:03;92942.94;;;28.19;42.33
59289;BME280;45056;47.602;9.886;2023-06-22T08:20:31;92936.41;;;28.24;42.44
59289;BME280;45056;47.602;9.886;2023-06-22T08:22:59;92942.75;;;28.25;42.57
59289;BME280;45056;47.602;9.886;2023-06-22T08:25:32;92937.72;;;28.23;41.25
59289;BME280;45056;47.602;9.886;2023-06-22T08:28:01;92939.00;;;28.22;41.29
59289;BME280;45056;47.602;9.886;2023-06-22T08:30:30;92941.81;;;28.22;40.31
59289;BME280;45056;47.602;9.886;2023-06-22T08:32:58;92946.09;;;28.23;40.30
59289;BME280;45056;47.602;9.886;2023-06-22T08:35:26;92946.09;;;28.23;40.43
59289;BME280;45056;47.602;9.886;2023-06-22T08:37:55;92943.31;;;28.23;40.41
59289;BME280;45056;47.602;9.886;2023-06-22T08:40:24;92949.63;;;28.23;40.23
59289;BME280;45056;47.602;9.886;2023-06-22T08:42:53;92949.63;;;28.23;38.98
59289;BME280;45056;47.602;9.886;2023-06-22T08:45:21;92953.72;;;28.22;37.68
59289;BME280;45056;47.602;9.886;2023-06-22T08:47:50;92955.78;;;28.22;37.98
59289;BME280;45056;47.602;9.886;2023-06-22T08:50:18;92968.47;;;28.23;38.17
59289;BME280;45056;47.602;9.886;2023-06-22T08:52:46;92969.97;;;28.24;37.98
59289;BME280;45056;47.602;9.886;2023-06-22T08:55:14;92998.13;;;28.26;37.94
59289;BME280;45056;47.602;9.886;2023-06-22T08:57:43;93027.59;;;28.27;42.44
59289;BME280;45056;47.602;9.886;2023-06-22T09:00:12;93016.94;;;28.18;45.85
59289;BME280;45056;47.602;9.886;2023-06-22T09:02:44;93028.78;;;27.95;46.68
59289;BME280;45056;47.602;9.886;2023-06-22T09:05:14;93037.63;;;27.62;47.82
59289;BME280;45056;47.602;9.886;2023-06-22T09:07:43;93047.06;;;27.22;48.46
59289;BME280;45056;47.602;9.886;2023-06-22T09:10:11;93042.38;;;26.88;49.30
59289;BME280;45056;47.602;9.886;2023-06-22T09:12:39;93046.03;;;26.62;50.05
59289;BME280;45056;47.602;9.886;2023-06-22T09:15:09;93043.25;;;26.41;50.98
59289;BME280;45056;47.602;9.886;2023-06-22T09:17:38;93052.34;;;26.20;51.51
59289;BME280;45056;47.602;9.886;2023-06-22T09:20:07;93060.34;;;26.02;52.37
59289;BME280;45056;47.602;9.886;2023-06-22T09:22:38;93068.31;;;25.85;52.91
59289;BME280;45056;47.602;9.886;2023-06-22T09:25:07;93066.06;;;25.70;53.43
59289;BME280;45056;47.602;9.886;2023-06-22T09:27:35;93066.53;;;25.60;54.11
59289;BME280;45056;47.602;9.886;2023-06-22T09:30:05;93065.34;;;25.56;54.39
59289;BME280;45056;47.602;9.886;2023-06-22T09:32:34;93055.63;;;25.49;54.82
59289;BME280;45056;47.602;9.886;2023-06-22T09:35:05;93055.50;;;25.41;54.53
59289;BME280;45056;47.602;9.886;2023-06-22T09:37:35;93065.13;;;25.27;54.53
59289;BME280;45056;47.602;9.886;2023-06-22T09:40:06;93051.84;;;25.19;54.62
59289;BME280;45056;47.602;9.886;2023-06-22T09:42:37;93068.13;;;25.15;54.56
59289;BME280;45056;47.602;9.886;2023-06-22T09:45:06;93066.41;;;25.12;54.63
59289;BME280;45056;47.602;9.886;2023-06-22T09:47:36;93066.94;;;25.11;54.89
59289;BME280;45056;47.602;9.886;2023-06-22T09:50:05;93062.91;;;25.12;55.03
59289;BME280;45056;47.602;9.886;2023-06-22T09:52:33;93068.88;;;25.16;55.11
59289;BME280;45056;47.602;9.886;2023-06-22T09:55:01;93069.75;;;25.24;54.93
59289;BME280;45056;47.602;9.886;2023-06-22T09:57:31;93065.44;;;25.36;54.75
59289;BME280;45056;47.602;9.886;2023-06-22T10:00:00;93068.78;;;25.48;54.68
59289;BME280;45056;47.602;9.886;2023-06-22T10:02:28;93077.25;;;25.56;53.84
59289;BME280;45056;47.602;9.886;2023-06-22T10:04:56;93072.09;;;25.60;53.20
59289;BME280;45056;47.602;9.886;2023-06-22T10:07:24;93061.16;;;25.62;53.57
59289;BME280;45056;47.602;9.886;2023-06-22T10:09:52;93060.28;;;25.68;53.05
59289;BME280;45056;47.602;9.886;2023-06-22T10:12:20;93048.63;;;25.69;52.63
59289;BME280;45056;47.602;9.886;2023-06-22T10:14:49;93040.88;;;25.75;52.55
59289;BME280;45056;47.602;9.886;2023-06-22T10:17:17;93038.72;;;25.82;52.20
59289;BME280;45056;47.602;9.886;2023-06-22T10:19:45;93035.50;;;25.91;52.41
59289;BME280;45056;47.602;9.886;2023-06-22T10:22:13;93026.69;;;26.00;52.19
59289;BME280;45056;47.602;9.886;2023-06-22T10:24:41;93031.78;;;26.10;51.73
59289;BME280;45056;47.602;9.886;2023-06-22T10:27:11;93035.41;;;26.18;51.61
59289;BME280;45056;47.602;9.886;2023-06-22T10:29:41;93022.53;;;26.28;51.63
59289;BME280;45056;47.602;9.886;2023-06-22T10:32:11;93013.88;;;26.40;50.89
59289;BME280;45056;47.602;9.886;2023-06-22T10:34:39;93011.69;;;26.46;50.25
59289;BME280;45056;47.602;9.886;2023-06-22T10:37:07;93002.84;;;26.55;49.53
59289;BME280;45056;47.602;9.886;2023-06-22T10:39:35;93005.16;;;26.64;49.49
59289;BME280;45056;47.602;9.886;2023-06-22T10:42:03;93009.13;;;26.77;49.20
59289;BME280;45056;47.602;9.886;2023-06-22T10:44:31;93012.78;;;26.85;49.40
59289;BME280;45056;47.602;9.886;2023-06-22T10:46:59;93014.31;;;26.94;49.01
59289;BME280;45056;47.602;9.886;2023-06-22T10:49:29;93021.44;;;27.03;48.82
59289;BME280;45056;47.602;9.886;2023-06-22T10:51:57;93005.91;;;27.15;48.66
59289;BME280;45056;47.602;9.886;2023-06-22T10:54:25;93003.72;;;27.29;47.56
59289;BME280;45056;47.602;9.886;2023-06-22T10:56:53;92999.91;;;27.48;44.96
59289;BME280;45056;47.602;9.886;2023-06-22T10:59:21;92999.06;;;27.61;44.00
59289;BME280;45056;47.602;9.886;2023-06-22T11:01:50;92993.88;;;27.73;44.62
59289;BME280;45056;47.602;9.886;2023-06-22T11:04:18;92980.66;;;27.81;43.36
59289;BME280;45056;47.602;9.886;2023-06-22T11:06:48;92972.31;;;27.89;42.98
59289;BME280;45056;47.602;9.886;2023-06-22T11:09:17;92981.25;;;27.95;43.21
59289;BME280;45056;47.602;9.886;2023-06-22T11:11:47;92984.81;;;28.03;44.36
59289;BME280;45056;47.602;9.886;2023-06-22T11:14:17;92986.13;;;28.10;43.98
59289;BME280;45056;47.602;9.886;2023-06-22T11:16:45;92997.38;;;28.18;44.18
59289;BME280;45056;47.602;9.886;2023-06-22T11:19:13;92995.31;;;28.26;44.16
59289;BME280;45056;47.602;9.886;2023-06-22T11:21:41;92992.91;;;28.30;43.90
59289;BME280;45056;47.602;9.886;2023-06-22T11:24:11;92989.34;;;28.37;43.75
59289;BME280;45056;47.602;9.886;2023-06-22T11:26:39;92985.84;;;28.45;42.66
59289;BME280;45056;47.602;9.886;2023-06-22T11:29:07;92987.69;;;28.50;42.23
59289;BME280;45056;47.602;9.886;2023-06-22T11:31:35;92986.59;;;28.53;42.08
59289;BME280;45056;47.602;9.886;2023-06-22T11:34:04;92979.88;;;28.56;41.88
59289;BME280;45056;47.602;9.886;2023-06-22T11:36:32;92974.44;;;28.58;42.08
59289;BME280;45056;47.602;9.886;2023-06-22T11:39:02;92979.88;;;28.64;42.09
59289;BME280;45056;47.602;9.886;2023-06-22T11:41:32;92980.22;;;28.68;42.13
59289;BME280;45056;47.602;9.886;2023-06-22T11:44:00;92981.53;;;28.75;42.34
59289;BME280;45056;47.602;9.886;2023-06-22T11:46:31;92972.78;;;28.86;42.18
59289;BME280;45056;47.602;9.886;2023-06-22T11:49:01;92972.19;;;28.96;41.25
59289;BME280;45056;47.602;9.886;2023-06-22T11:51:29;92972.00;;;29.09;41.07
59289;BME280;45056;47.602;9.886;2023-06-22T11:53:58;92977.19;;;29.20;41.16
59289;BME280;45056;47.602;9.886;2023-06-22T11:56:26;92968.94;;;29.30;41.35
59289;BME280;45056;47.602;9.886;2023-06-22T11:58:56;92970.78;;;29.35;41.25
59289;BME280;45056;47.602;9.886;2023-06-22T12:01:24;92981.06;;;29.41;39.73
59289;BME280;45056;47.602;9.886;2023-06-22T12:03:52;92974.34;;;29.36;37.92
59289;BME280;45056;47.602;9.886;2023-06-22T12:06:19;92980.53;;;29.27;37.38
59289;BME280;45056;47.602;9.886;2023-06-22T12:08:47;92982.78;;;29.20;37.49
59289;BME280;45056;47.602;9.886;2023-06-22T12:11:16;92987.84;;;29.14;38.05
59289;BME280;45056;47.602;9.886;2023-06-22T12:13:44;92991.03;;;29.11;37.79
59289;BME280;45056;47.602;9.886;2023-06-22T12:16:13;92992.16;;;29.07;38.14
59289;BME280;45056;47.602;9.886;2023-06-22T12:18:41;92985.81;;;29.07;38.44
59289;BME280;45056;47.602;9.886;2023-06-22T12:21:09;92981.53;;;29.06;38.82
59289;BME280;45056;47.602;9.886;2023-06-22T12:23:37;92976.28;;;29.02;39.01
59289;BME280;45056;47.602;9.886;2023-06-22T12:26:05;92959.31;;;29.00;39.42
59289;BME280;45056;47.602;9.886;2023-06-22T12:28:33;92966.97;;;29.00;39.91
59289;BME280;45056;47.602;9.886;2023-06-22T12:31:01;92975.19;;;28.98;39.39
59289;BME280;45056;47.602;9.886;2023-06-22T12:33:30;92972.00;;;28.93;39.60
59289;BME280;45056;47.602;9.886;2023-06-22T12:35:58;92978.00;;;28.90;39.41
59289;BME280;45056;47.602;9.886;2023-06-22T12:38:26;92975.75;;;28.88;39.26
59289;BME280;45056;47.602;9.886;2023-06-22T12:40:54;92974.09;;;28.85;39.46
59289;BME280;45056;47.602;9.886;2023-06-22T12:43:25;92982.31;;;28.83;39.50
59289;BME280;45056;47.602;9.886;2023-06-22T12:45:53;92983.44;;;28.80;39.74
59289;BME280;45056;47.602;9.886;2023-06-22T12:48:21;92981.72;;;28.77;39.91
59289;BME280;45056;47.602;9.886;2023-06-22T12:50:52;92980.06;;;28.74;40.35
59289;BME280;45056;47.602;9.886;2023-06-22T12:53:21;92970.72;;;28.71;40.54
59289;BME280;45056;47.602;9.886;2023-06-22T12:55:51;92980.41;;;28.70;40.60
59289;BME280;45056;47.602;9.886;2023-06-22T12:58:19;92978.94;;;28.69;40.13
59289;BME280;45056;47.602;9.886;2023-06-22T13:00:47;92981.72;;;28.69;40.40
59289;BME280;45056;47.602;9.886;2023-06-22T13:03:16;92978.38;;;28.71;40.40
59289;BME280;45056;47.602;9.886;2023-06-22T13:05:44;92970.72;;;28.71;40.39
59289;BME280;45056;47.602;9.886;2023-06-22T13:08:13;92978.38;;;28.71;40.40
59289;BME280;45056;47.602;9.886;2023-06-22T13:10:41;92972.22;;;28.72;40.50
59289;BME280;45056;47.602;9.886;2023-06-22T13:13:09;92975.00;;;28.72;40.10